sensor_id;sensor_type;location;lat;lon;timestamp;P1;durP1;ratioP1;P2;durP2;ratioP2
36629;SDS011;36256;42.154;23.002;2022-07-24T00:00:55;15.35;;;7.13;;
36629;SDS011;36256;42.154;23.002;2022-07-24T00:03:22;13.95;;;7.30;;
36629;SDS011;36256;42.154;23.002;2022-07-24T00:05:54;12.48;;;7.22;;
36629;SDS011;36256;42.154;23.002;2022-07-24T00:08:21;13.43;;;7.22;;
36629;SDS011;36256;42.154;23.002;2022-07-24T00:10:48;13.00;;;7.32;;
36629;SDS011;36256;42.154;23.002;2022-07-24T00:13:15;13.63;;;7.45;;
36629;SDS011;36256;42.154;23.002;2022-07-24T00:15:41;15.65;;;7.65;;
36629;SDS011;36256;42.154;23.002;2022-07-24T00:18:08;17.30;;;7.43;;
36629;SDS011;36256;42.154;23.002;2022-07-24T00:20:35;14.27;;;7.10;;
36629;SDS011;36256;42.154;23.002;2022-07-24T00:23:02;14.95;;;7.88;;
36629;SDS011;36256;42.154;23.002;2022-07-24T00:25:28;16.23;;;7.47;;
36629;SDS011;36256;42.154;23.002;2022-07-24T00:27:55;13.00;;;7.10;;
36629;SDS011;36256;42.154;23.002;2022-07-24T00:30:21;16.35;;;7.20;;
36629;SDS011;36256;42.154;23.002;2022-07-24T00:32:48;17.38;;;7.10;;
36629;SDS011;36256;42.154;23.002;2022-07-24T00:35:15;16.92;;;7.15;;
36629;SDS011;36256;42.154;23.002;2022-07-24T00:37:41;13.80;;;7.38;;
36629;SDS011;36256;42.154;23.002;2022-07-24T00:40:08;15.40;;;7.13;;
36629;SDS011;36256;42.154;23.002;2022-07-24T00:42:35;11.25;;;7.22;;
36629;SDS011;36256;42.154;23.002;2022-07-24T00:45:02;15.05;;;7.53;;
36629;SDS011;36256;42.154;23.002;2022-07-24T00:47:45;13.48;;;7.20;;
36629;SDS011;36256;42.154;23.002;2022-07-24T00:50:12;15.32;;;7.47;;
36629;SDS011;36256;42.154;23.002;2022-07-24T00:52:39;11.98;;;7.38;;
36629;SDS011;36256;42.154;23.002;2022-07-24T00:55:06;11.52;;;7.20;;
36629;SDS011;36256;42.154;23.002;2022-07-24T00:59:59;15.38;;;7.57;;
36629;SDS011;36256;42.154;23.002;2022-07-24T01:02:26;14.55;;;6.97;;
36629;SDS011;36256;42.154;23.002;2022-07-24T01:04:53;9.30;;;6.87;;
36629;SDS011;36256;42.154;23.002;2022-07-24T01:07:19;14.10;;;7.80;;
36629;SDS011;36256;42.154;23.002;2022-07-24T01:09:46;14.65;;;7.45;;
36629;SDS011;36256;42.154;23.002;2022-07-24T01:12:13;16.42;;;7.35;;
36629;SDS011;36256;42.154;23.002;2022-07-24T01:14:40;14.25;;;7.85;;
36629;SDS011;36256;42.154;23.002;2022-07-24T01:17:07;14.65;;;7.22;;
36629;SDS011;36256;42.154;23.002;2022-07-24T01:19:34;14.82;;;7.15;;
36629;SDS011;36256;42.154;23.002;2022-07-24T01:22:00;14.07;;;7.63;;
36629;SDS011;36256;42.154;23.002;2022-07-24T01:24:27;15.32;;;7.70;;
36629;SDS011;36256;42.154;23.002;2022-07-24T01:26:54;19.02;;;8.63;;
36629;SDS011;36256;42.154;23.002;2022-07-24T01:29:20;17.08;;;8.23;;
36629;SDS011;36256;42.154;23.002;2022-07-24T01:31:47;18.08;;;8.30;;
36629;SDS011;36256;42.154;23.002;2022-07-24T01:34:14;18.27;;;8.80;;
36629;SDS011;36256;42.154;23.002;2022-07-24T01:36:41;22.23;;;8.77;;
36629;SDS011;36256;42.154;23.002;2022-07-24T01:39:07;15.48;;;7.47;;
36629;SDS011;36256;42.154;23.002;2022-07-24T01:41:34;12.75;;;7.47;;
36629;SDS011;36256;42.154;23.002;2022-07-24T01:44:00;17.13;;;7.60;;
36629;SDS011;36256;42.154;23.002;2022-07-24T01:46:27;13.80;;;7.22;;
36629;SDS011;36256;42.154;23.002;2022-07-24T01:48:54;13.43;;;7.25;;
36629;SDS011;36256;42.154;23.002;2022-07-24T01:51:21;15.02;;;7.35;;
36629;SDS011;36256;42.154;23.002;2022-07-24T01:53:47;16.27;;;7.43;;
36629;SDS011;36256;42.154;23.002;2022-07-24T01:56:14;17.15;;;7.95;;
36629;SDS011;36256;42.154;23.002;2022-07-24T01:58:41;12.18;;;7.15;;
36629;SDS011;36256;42.154;23.002;2022-07-24T02:01:08;15.32;;;7.55;;
36629;SDS011;36256;42.154;23.002;2022-07-24T02:03:35;14.38;;;7.57;;
36629;SDS011;36256;42.154;23.002;2022-07-24T02:06:02;12.63;;;7.77;;
36629;SDS011;36256;42.154;23.002;2022-07-24T02:08:29;12.40;;;7.85;;
36629;SDS011;36256;42.154;23.002;2022-07-24T02:10:56;17.38;;;8.20;;
36629;SDS011;36256;42.154;23.002;2022-07-24T02:13:22;19.60;;;8.50;;
36629;SDS011;36256;42.154;23.002;2022-07-24T02:15:52;19.63;;;7.72;;
36629;SDS011;36256;42.154;23.002;2022-07-24T02:18:19;18.75;;;8.70;;
36629;SDS011;36256;42.154;23.002;2022-07-24T02:20:45;11.40;;;7.53;;
36629;SDS011;36256;42.154;23.002;2022-07-24T02:23:12;12.33;;;7.57;;
36629;SDS011;36256;42.154;23.002;2022-07-24T02:25:44;14.10;;;7.40;;
36629;SDS011;36256;42.154;23.002;2022-07-24T02:28:11;13.23;;;7.43;;
36629;SDS011;36256;42.154;23.002;2022-07-24T02:30:41;16.30;;;7.43;;
36629;SDS011;36256;42.154;23.002;2022-07-24T02:33:08;14.07;;;7.93;;
36629;SDS011;36256;42.154;23.002;2022-07-24T02:35:36;13.60;;;7.03;;
36629;SDS011;36256;42.154;23.002;2022-07-24T02:38:03;11.93;;;7.18;;
36629;SDS011;36256;42.154;23.002;2022-07-24T02:40:30;12.43;;;7.47;;
36629;SDS011;36256;42.154;23.002;2022-07-24T02:45:24;15.40;;;7.30;;
36629;SDS011;36256;42.154;23.002;2022-07-24T02:47:51;15.80;;;7.35;;
36629;SDS011;36256;42.154;23.002;2022-07-24T02:50:20;17.98;;;8.10;;
36629;SDS011;36256;42.154;23.002;2022-07-24T02:52:48;16.67;;;7.60;;
36629;SDS011;36256;42.154;23.002;2022-07-24T02:55:15;11.05;;;7.20;;
36629;SDS011;36256;42.154;23.002;2022-07-24T02:57:42;16.45;;;8.30;;
36629;SDS011;36256;42.154;23.002;2022-07-24T03:00:10;15.63;;;8.13;;
36629;SDS011;36256;42.154;23.002;2022-07-24T03:02:39;17.33;;;8.15;;
36629;SDS011;36256;42.154;23.002;2022-07-24T03:05:06;16.05;;;7.55;;
36629;SDS011;36256;42.154;23.002;2022-07-24T03:07:35;13.73;;;7.45;;
36629;SDS011;36256;42.154;23.002;2022-07-24T03:10:03;15.38;;;8.23;;
36629;SDS011;36256;42.154;23.002;2022-07-24T03:12:31;13.77;;;7.70;;
36629;SDS011;36256;42.154;23.002;2022-07-24T03:14:57;12.77;;;7.57;;
36629;SDS011;36256;42.154;23.002;2022-07-24T03:17:24;13.80;;;8.20;;
36629;SDS011;36256;42.154;23.002;2022-07-24T03:19:51;15.50;;;7.78;;
36629;SDS011;36256;42.154;23.002;2022-07-24T03:22:17;12.80;;;7.90;;
36629;SDS011;36256;42.154;23.002;2022-07-24T03:24:44;16.33;;;7.82;;
36629;SDS011;36256;42.154;23.002;2022-07-24T03:27:11;12.27;;;7.55;;
36629;SDS011;36256;42.154;23.002;2022-07-24T03:29:38;15.10;;;8.00;;
36629;SDS011;36256;42.154;23.002;2022-07-24T03:32:04;17.02;;;8.43;;
36629;SDS011;36256;42.154;23.002;2022-07-24T03:34:31;13.77;;;8.07;;
36629;SDS011;36256;42.154;23.002;2022-07-24T03:36:58;15.45;;;7.72;;
36629;SDS011;36256;42.154;23.002;2022-07-24T03:39:25;15.77;;;8.17;;
36629;SDS011;36256;42.154;23.002;2022-07-24T03:41:52;16.90;;;7.75;;
36629;SDS011;36256;42.154;23.002;2022-07-24T03:44:18;15.77;;;7.40;;
36629;SDS011;36256;42.154;23.002;2022-07-24T03:46:45;11.30;;;7.43;;
36629;SDS011;36256;42.154;23.002;2022-07-24T03:49:11;12.30;;;7.60;;
36629;SDS011;36256;42.154;23.002;2022-07-24T03:51:38;17.67;;;8.15;;
36629;SDS011;36256;42.154;23.002;2022-07-24T03:54:05;19.95;;;9.23;;
36629;SDS011;36256;42.154;23.002;2022-07-24T03:56:32;21.48;;;8.55;;
36629;SDS011;36256;42.154;23.002;2022-07-24T03:58:58;17.10;;;9.27;;
36629;SDS011;36256;42.154;23.002;2022-07-24T04:01:25;17.52;;;9.13;;
36629;SDS011;36256;42.154;23.002;2022-07-24T04:03:52;19.58;;;10.02;;
36629;SDS011;36256;42.154;23.002;2022-07-24T04:06:19;37.25;;;17.52;;
36629;SDS011;36256;42.154;23.002;2022-07-24T04:08:45;73.07;;;39.97;;
36629;SDS011;36256;42.154;23.002;2022-07-24T04:11:13;49.92;;;27.25;;
36629;SDS011;36256;42.154;23.002;2022-07-24T04:13:40;44.25;;;20.85;;
36629;SDS011;36256;42.154;23.002;2022-07-24T04:16:09;27.48;;;14.38;;
36629;SDS011;36256;42.154;23.002;2022-07-24T04:18:36;23.23;;;12.60;;
36629;SDS011;36256;42.154;23.002;2022-07-24T04:21:02;28.15;;;11.27;;
36629;SDS011;36256;42.154;23.002;2022-07-24T04:23:29;23.88;;;9.75;;
36629;SDS011;36256;42.154;23.002;2022-07-24T04:25:56;24.08;;;9.20;;
36629;SDS011;36256;42.154;23.002;2022-07-24T04:28:22;20.80;;;8.55;;
36629;SDS011;36256;42.154;23.002;2022-07-24T04:30:49;18.48;;;8.80;;
36629;SDS011;36256;42.154;23.002;2022-07-24T04:33:16;20.02;;;9.30;;
36629;SDS011;36256;42.154;23.002;2022-07-24T04:35:43;16.90;;;9.85;;
36629;SDS011;36256;42.154;23.002;2022-07-24T04:38:09;20.85;;;9.25;;
36629;SDS011;36256;42.154;23.002;2022-07-24T04:40:36;15.60;;;8.93;;
36629;SDS011;36256;42.154;23.002;2022-07-24T04:43:03;15.00;;;9.38;;
36629;SDS011;36256;42.154;23.002;2022-07-24T04:45:29;20.02;;;9.38;;
36629;SDS011;36256;42.154;23.002;2022-07-24T04:48:01;22.00;;;9.73;;
36629;SDS011;36256;42.154;23.002;2022-07-24T04:50:27;21.13;;;10.20;;
36629;SDS011;36256;42.154;23.002;2022-07-24T04:52:54;18.77;;;9.35;;
36629;SDS011;36256;42.154;23.002;2022-07-24T04:55:21;24.17;;;9.03;;
36629;SDS011;36256;42.154;23.002;2022-07-24T04:57:48;19.80;;;9.80;;
36629;SDS011;36256;42.154;23.002;2022-07-24T05:00:14;16.58;;;8.18;;
36629;SDS011;36256;42.154;23.002;2022-07-24T05:02:41;19.58;;;9.60;;
36629;SDS011;36256;42.154;23.002;2022-07-24T05:05:08;16.58;;;9.65;;
36629;SDS011;36256;42.154;23.002;2022-07-24T05:07:35;19.50;;;9.23;;
36629;SDS011;36256;42.154;23.002;2022-07-24T05:10:02;17.42;;;9.77;;
36629;SDS011;36256;42.154;23.002;2022-07-24T05:12:29;21.88;;;10.60;;
36629;SDS011;36256;42.154;23.002;2022-07-24T05:14:56;16.85;;;9.45;;
36629;SDS011;36256;42.154;23.002;2022-07-24T05:17:23;19.25;;;9.90;;
36629;SDS011;36256;42.154;23.002;2022-07-24T05:19:49;17.88;;;9.45;;
36629;SDS011;36256;42.154;23.002;2022-07-24T05:22:16;22.08;;;8.80;;
36629;SDS011;36256;42.154;23.002;2022-07-24T05:24:43;19.45;;;9.48;;
36629;SDS011;36256;42.154;23.002;2022-07-24T05:27:09;18.50;;;8.88;;
36629;SDS011;36256;42.154;23.002;2022-07-24T05:29:38;19.08;;;9.43;;
36629;SDS011;36256;42.154;23.002;2022-07-24T05:32:07;19.83;;;9.35;;
36629;SDS011;36256;42.154;23.002;2022-07-24T05:34:34;26.05;;;10.32;;
36629;SDS011;36256;42.154;23.002;2022-07-24T05:37:06;26.88;;;10.25;;
36629;SDS011;36256;42.154;23.002;2022-07-24T05:39:34;30.02;;;11.73;;
36629;SDS011;36256;42.154;23.002;2022-07-24T05:42:01;30.27;;;11.48;;
36629;SDS011;36256;42.154;23.002;2022-07-24T05:46:55;25.13;;;9.32;;
36629;SDS011;36256;42.154;23.002;2022-07-24T05:49:21;22.45;;;9.43;;
36629;SDS011;36256;42.154;23.002;2022-07-24T05:51:51;20.15;;;9.20;;
36629;SDS011;36256;42.154;23.002;2022-07-24T05:54:17;19.67;;;8.55;;
36629;SDS011;36256;42.154;23.002;2022-07-24T05:56:44;16.98;;;7.97;;
36629;SDS011;36256;42.154;23.002;2022-07-24T05:59:11;19.02;;;8.45;;
36629;SDS011;36256;42.154;23.002;2022-07-24T06:01:37;18.83;;;8.75;;
36629;SDS011;36256;42.154;23.002;2022-07-24T06:04:04;16.55;;;8.00;;
36629;SDS011;36256;42.154;23.002;2022-07-24T06:06:31;13.45;;;7.90;;
36629;SDS011;36256;42.154;23.002;2022-07-24T06:08:57;15.38;;;8.18;;
36629;SDS011;36256;42.154;23.002;2022-07-24T06:11:24;21.30;;;8.35;;
36629;SDS011;36256;42.154;23.002;2022-07-24T06:13:51;21.77;;;8.32;;
36629;SDS011;36256;42.154;23.002;2022-07-24T06:16:18;18.50;;;8.15;;
36629;SDS011;36256;42.154;23.002;2022-07-24T06:18:45;13.68;;;7.80;;
36629;SDS011;36256;42.154;23.002;2022-07-24T06:21:12;14.57;;;7.63;;
36629;SDS011;36256;42.154;23.002;2022-07-24T06:23:39;16.60;;;7.75;;
36629;SDS011;36256;42.154;23.002;2022-07-24T06:26:05;17.48;;;8.07;;
36629;SDS011;36256;42.154;23.002;2022-07-24T06:28:32;12.35;;;7.32;;
36629;SDS011;36256;42.154;23.002;2022-07-24T06:30:59;17.13;;;7.45;;
36629;SDS011;36256;42.154;23.002;2022-07-24T06:33:25;16.80;;;7.22;;
36629;SDS011;36256;42.154;23.002;2022-07-24T06:35:52;13.98;;;7.53;;
36629;SDS011;36256;42.154;23.002;2022-07-24T06:38:19;18.95;;;7.60;;
36629;SDS011;36256;42.154;23.002;2022-07-24T06:40:45;15.48;;;7.25;;
36629;SDS011;36256;42.154;23.002;2022-07-24T06:43:12;15.68;;;7.03;;
36629;SDS011;36256;42.154;23.002;2022-07-24T06:45:39;18.85;;;7.50;;
36629;SDS011;36256;42.154;23.002;2022-07-24T06:48:06;18.92;;;7.75;;
36629;SDS011;36256;42.154;23.002;2022-07-24T06:50:32;12.30;;;7.30;;
36629;SDS011;36256;42.154;23.002;2022-07-24T06:53:00;17.90;;;7.43;;
36629;SDS011;36256;42.154;23.002;2022-07-24T06:55:26;13.50;;;6.47;;
36629;SDS011;36256;42.154;23.002;2022-07-24T06:57:54;15.10;;;6.60;;
36629;SDS011;36256;42.154;23.002;2022-07-24T07:00:20;11.60;;;6.25;;
36629;SDS011;36256;42.154;23.002;2022-07-24T07:07:40;17.38;;;6.65;;
36629;SDS011;36256;42.154;23.002;2022-07-24T07:10:08;14.88;;;6.53;;
36629;SDS011;36256;42.154;23.002;2022-07-24T07:15:06;13.80;;;6.80;;
36629;SDS011;36256;42.154;23.002;2022-07-24T07:17:36;11.93;;;6.72;;
36629;SDS011;36256;42.154;23.002;2022-07-24T07:20:04;18.20;;;7.15;;
36629;SDS011;36256;42.154;23.002;2022-07-24T07:22:31;12.90;;;6.35;;
36629;SDS011;36256;42.154;23.002;2022-07-24T07:24:58;18.92;;;6.82;;
36629;SDS011;36256;42.154;23.002;2022-07-24T07:27:25;17.88;;;7.10;;
36629;SDS011;36256;42.154;23.002;2022-07-24T07:29:51;13.70;;;7.13;;
36629;SDS011;36256;42.154;23.002;2022-07-24T07:32:18;15.82;;;7.07;;
36629;SDS011;36256;42.154;23.002;2022-07-24T07:34:44;19.52;;;7.03;;
36629;SDS011;36256;42.154;23.002;2022-07-24T07:37:11;15.43;;;7.03;;
36629;SDS011;36256;42.154;23.002;2022-07-24T07:39:38;19.13;;;7.18;;
36629;SDS011;36256;42.154;23.002;2022-07-24T07:42:04;18.48;;;6.93;;
36629;SDS011;36256;42.154;23.002;2022-07-24T07:44:31;14.73;;;6.90;;
36629;SDS011;36256;42.154;23.002;2022-07-24T07:46:58;23.00;;;7.82;;
36629;SDS011;36256;42.154;23.002;2022-07-24T07:49:24;17.98;;;7.20;;
36629;SDS011;36256;42.154;23.002;2022-07-24T07:51:51;10.73;;;6.28;;
36629;SDS011;36256;42.154;23.002;2022-07-24T07:54:18;13.20;;;6.60;;
36629;SDS011;36256;42.154;23.002;2022-07-24T07:56:45;10.68;;;6.38;;
36629;SDS011;36256;42.154;23.002;2022-07-24T07:59:12;11.82;;;6.75;;
36629;SDS011;36256;42.154;23.002;2022-07-24T08:01:39;12.93;;;6.63;;
36629;SDS011;36256;42.154;23.002;2022-07-24T08:04:06;19.73;;;6.72;;
36629;SDS011;36256;42.154;23.002;2022-07-24T08:06:32;14.02;;;6.45;;
36629;SDS011;36256;42.154;23.002;2022-07-24T08:08:59;12.38;;;6.50;;
36629;SDS011;36256;42.154;23.002;2022-07-24T08:11:27;18.48;;;7.18;;
36629;SDS011;36256;42.154;23.002;2022-07-24T08:13:54;17.67;;;7.15;;
36629;SDS011;36256;42.154;23.002;2022-07-24T08:16:20;15.05;;;7.45;;
36629;SDS011;36256;42.154;23.002;2022-07-24T08:18:47;13.63;;;7.07;;
36629;SDS011;36256;42.154;23.002;2022-07-24T08:21:17;18.73;;;7.18;;
36629;SDS011;36256;42.154;23.002;2022-07-24T08:23:44;16.08;;;7.03;;
36629;SDS011;36256;42.154;23.002;2022-07-24T08:26:12;20.25;;;6.88;;
36629;SDS011;36256;42.154;23.002;2022-07-24T08:28:39;16.17;;;6.60;;
36629;SDS011;36256;42.154;23.002;2022-07-24T08:33:32;18.15;;;7.32;;
36629;SDS011;36256;42.154;23.002;2022-07-24T08:35:59;18.35;;;7.07;;
36629;SDS011;36256;42.154;23.002;2022-07-24T08:38:26;16.33;;;7.28;;
36629;SDS011;36256;42.154;23.002;2022-07-24T08:40:52;15.48;;;7.07;;
36629;SDS011;36256;42.154;23.002;2022-07-24T08:43:19;13.80;;;7.38;;
36629;SDS011;36256;42.154;23.002;2022-07-24T08:45:46;16.02;;;7.20;;
36629;SDS011;36256;42.154;23.002;2022-07-24T08:48:14;15.85;;;7.30;;
36629;SDS011;36256;42.154;23.002;2022-07-24T08:50:42;20.17;;;7.35;;
36629;SDS011;36256;42.154;23.002;2022-07-24T08:53:10;16.92;;;7.32;;
36629;SDS011;36256;42.154;23.002;2022-07-24T08:55:37;13.15;;;7.10;;
36629;SDS011;36256;42.154;23.002;2022-07-24T08:58:04;17.05;;;8.02;;
36629;SDS011;36256;42.154;23.002;2022-07-24T09:00:31;19.40;;;7.63;;
36629;SDS011;36256;42.154;23.002;2022-07-24T09:02:58;21.33;;;8.00;;
36629;SDS011;36256;42.154;23.002;2022-07-24T09:05:26;18.10;;;7.95;;
36629;SDS011;36256;42.154;23.002;2022-07-24T09:08:05;19.63;;;7.40;;
36629;SDS011;36256;42.154;23.002;2022-07-24T09:10:32;21.30;;;7.95;;
36629;SDS011;36256;42.154;23.002;2022-07-24T09:13:11;20.00;;;7.82;;
36629;SDS011;36256;42.154;23.002;2022-07-24T09:15:48;13.93;;;7.10;;
36629;SDS011;36256;42.154;23.002;2022-07-24T09:21:12;18.88;;;7.45;;
36629;SDS011;36256;42.154;23.002;2022-07-24T09:23:40;13.93;;;7.30;;
36629;SDS011;36256;42.154;23.002;2022-07-24T09:26:07;15.02;;;7.13;;
36629;SDS011;36256;42.154;23.002;2022-07-24T09:31:52;17.40;;;6.97;;
36629;SDS011;36256;42.154;23.002;2022-07-24T09:34:21;20.23;;;7.32;;
36629;SDS011;36256;42.154;23.002;2022-07-24T09:37:02;15.63;;;7.03;;
36629;SDS011;36256;42.154;23.002;2022-07-24T09:39:32;16.65;;;7.80;;
36629;SDS011;36256;42.154;23.002;2022-07-24T09:42:00;12.95;;;7.10;;
36629;SDS011;36256;42.154;23.002;2022-07-24T09:44:28;19.25;;;7.82;;
36629;SDS011;36256;42.154;23.002;2022-07-24T09:46:59;18.15;;;7.40;;
36629;SDS011;36256;42.154;23.002;2022-07-24T09:49:26;12.35;;;6.47;;
36629;SDS011;36256;42.154;23.002;2022-07-24T09:54:34;11.38;;;6.50;;
36629;SDS011;36256;42.154;23.002;2022-07-24T09:57:15;11.48;;;6.47;;
36629;SDS011;36256;42.154;23.002;2022-07-24T09:59:51;9.88;;;5.50;;
36629;SDS011;36256;42.154;23.002;2022-07-24T10:02:29;11.10;;;5.72;;
36629;SDS011;36256;42.154;23.002;2022-07-24T10:04:58;15.25;;;6.18;;
36629;SDS011;36256;42.154;23.002;2022-07-24T10:07:27;10.23;;;6.03;;
36629;SDS011;36256;42.154;23.002;2022-07-24T10:09:55;11.02;;;6.15;;
36629;SDS011;36256;42.154;23.002;2022-07-24T10:12:24;8.25;;;5.80;;
36629;SDS011;36256;42.154;23.002;2022-07-24T10:14:54;13.45;;;6.78;;
36629;SDS011;36256;42.154;23.002;2022-07-24T10:17:27;14.10;;;6.55;;
36629;SDS011;36256;42.154;23.002;2022-07-24T10:19:58;14.88;;;5.90;;
36629;SDS011;36256;42.154;23.002;2022-07-24T10:23:01;9.38;;;5.82;;
36629;SDS011;36256;42.154;23.002;2022-07-24T10:25:29;12.10;;;6.20;;
36629;SDS011;36256;42.154;23.002;2022-07-24T10:28:13;9.63;;;6.10;;
36629;SDS011;36256;42.154;23.002;2022-07-24T10:30:43;8.82;;;5.82;;
36629;SDS011;36256;42.154;23.002;2022-07-24T10:33:15;10.85;;;6.43;;
36629;SDS011;36256;42.154;23.002;2022-07-24T10:35:42;14.73;;;6.07;;
36629;SDS011;36256;42.154;23.002;2022-07-24T10:38:12;9.98;;;5.72;;
36629;SDS011;36256;42.154;23.002;2022-07-24T10:40:50;11.73;;;5.97;;
36629;SDS011;36256;42.154;23.002;2022-07-24T10:43:21;9.13;;;5.90;;
36629;SDS011;36256;42.154;23.002;2022-07-24T10:51:22;15.95;;;6.50;;
36629;SDS011;36256;42.154;23.002;2022-07-24T10:53:45;9.77;;;5.85;;
36629;SDS011;36256;42.154;23.002;2022-07-24T10:56:24;11.00;;;5.95;;
36629;SDS011;36256;42.154;23.002;2022-07-24T11:06:56;13.67;;;6.10;;
36629;SDS011;36256;42.154;23.002;2022-07-24T11:09:26;12.85;;;5.68;;
36629;SDS011;36256;42.154;23.002;2022-07-24T11:14:25;9.68;;;5.50;;
36629;SDS011;36256;42.154;23.002;2022-07-24T11:20:08;12.30;;;5.93;;
36629;SDS011;36256;42.154;23.002;2022-07-24T11:22:38;11.18;;;5.97;;
36629;SDS011;36256;42.154;23.002;2022-07-24T11:30:32;14.30;;;5.95;;
36629;SDS011;36256;42.154;23.002;2022-07-24T11:32:59;21.45;;;6.40;;
36629;SDS011;36256;42.154;23.002;2022-07-24T11:35:30;10.32;;;5.35;;
36629;SDS011;36256;42.154;23.002;2022-07-24T11:38:00;10.70;;;5.78;;
36629;SDS011;36256;42.154;23.002;2022-07-24T11:40:28;12.40;;;6.07;;
36629;SDS011;36256;42.154;23.002;2022-07-24T11:42:58;13.18;;;5.35;;
36629;SDS011;36256;42.154;23.002;2022-07-24T11:45:33;14.63;;;5.63;;
36629;SDS011;36256;42.154;23.002;2022-07-24T11:48:00;15.10;;;6.35;;
36629;SDS011;36256;42.154;23.002;2022-07-24T11:52:53;21.00;;;6.40;;
36629;SDS011;36256;42.154;23.002;2022-07-24T11:55:21;13.77;;;5.60;;
36629;SDS011;36256;42.154;23.002;2022-07-24T11:57:52;14.05;;;5.78;;
36629;SDS011;36256;42.154;23.002;2022-07-24T12:00:41;11.88;;;6.03;;
36629;SDS011;36256;42.154;23.002;2022-07-24T12:05:36;12.07;;;5.53;;
36629;SDS011;36256;42.154;23.002;2022-07-24T12:08:15;16.08;;;5.80;;
36629;SDS011;36256;42.154;23.002;2022-07-24T12:10:44;12.48;;;6.00;;
36629;SDS011;36256;42.154;23.002;2022-07-24T12:13:15;11.13;;;6.10;;
36629;SDS011;36256;42.154;23.002;2022-07-24T12:15:43;15.45;;;6.25;;
36629;SDS011;36256;42.154;23.002;2022-07-24T12:18:10;9.95;;;5.95;;
36629;SDS011;36256;42.154;23.002;2022-07-24T12:20:38;9.00;;;5.75;;
36629;SDS011;36256;42.154;23.002;2022-07-24T12:23:09;10.93;;;5.38;;
36629;SDS011;36256;42.154;23.002;2022-07-24T12:25:38;9.43;;;5.72;;
36629;SDS011;36256;42.154;23.002;2022-07-24T12:28:09;10.98;;;6.13;;
36629;SDS011;36256;42.154;23.002;2022-07-24T12:30:45;11.13;;;6.47;;
36629;SDS011;36256;42.154;23.002;2022-07-24T12:33:26;15.48;;;6.13;;
36629;SDS011;36256;42.154;23.002;2022-07-24T12:38:31;9.40;;;5.63;;
36629;SDS011;36256;42.154;23.002;2022-07-24T12:43:45;8.07;;;5.93;;
36629;SDS011;36256;42.154;23.002;2022-07-24T12:46:13;9.80;;;5.78;;
36629;SDS011;36256;42.154;23.002;2022-07-24T12:48:54;7.35;;;5.70;;
36629;SDS011;36256;42.154;23.002;2022-07-24T12:51:22;9.23;;;5.53;;
36629;SDS011;36256;42.154;23.002;2022-07-24T12:56:19;8.07;;;5.65;;
36629;SDS011;36256;42.154;23.002;2022-07-24T13:04:43;12.88;;;6.38;;
36629;SDS011;36256;42.154;23.002;2022-07-24T13:07:15;6.57;;;5.70;;
36629;SDS011;36256;42.154;23.002;2022-07-24T13:09:43;8.95;;;5.90;;
36629;SDS011;36256;42.154;23.002;2022-07-24T13:12:10;11.60;;;6.28;;
36629;SDS011;36256;42.154;23.002;2022-07-24T13:14:37;11.25;;;5.70;;
36629;SDS011;36256;42.154;23.002;2022-07-24T13:17:12;10.95;;;5.95;;
36629;SDS011;36256;42.154;23.002;2022-07-24T13:19:45;8.77;;;6.10;;
36629;SDS011;36256;42.154;23.002;2022-07-24T13:22:16;12.73;;;6.28;;
36629;SDS011;36256;42.154;23.002;2022-07-24T13:24:43;10.18;;;6.03;;
36629;SDS011;36256;42.154;23.002;2022-07-24T13:27:11;12.13;;;6.13;;
36629;SDS011;36256;42.154;23.002;2022-07-24T13:29:40;13.88;;;6.20;;
36629;SDS011;36256;42.154;23.002;2022-07-24T13:32:08;8.32;;;6.18;;
36629;SDS011;36256;42.154;23.002;2022-07-24T13:34:34;13.07;;;5.55;;
36629;SDS011;36256;42.154;23.002;2022-07-24T13:37:02;12.13;;;5.75;;
36629;SDS011;36256;42.154;23.002;2022-07-24T13:39:35;8.18;;;6.07;;
36629;SDS011;36256;42.154;23.002;2022-07-24T13:42:06;11.18;;;6.18;;
36629;SDS011;36256;42.154;23.002;2022-07-24T13:49:26;10.82;;;5.88;;
36629;SDS011;36256;42.154;23.002;2022-07-24T13:51:54;11.95;;;5.78;;
36629;SDS011;36256;42.154;23.002;2022-07-24T13:54:21;15.02;;;6.55;;
36629;SDS011;36256;42.154;23.002;2022-07-24T13:56:48;18.80;;;6.15;;
36629;SDS011;36256;42.154;23.002;2022-07-24T13:59:16;12.18;;;6.82;;
36629;SDS011;36256;42.154;23.002;2022-07-24T14:01:42;13.13;;;7.18;;
36629;SDS011;36256;42.154;23.002;2022-07-24T14:04:09;14.73;;;7.55;;
36629;SDS011;36256;42.154;23.002;2022-07-24T14:06:55;13.43;;;6.30;;
36629;SDS011;36256;42.154;23.002;2022-07-24T14:11:49;12.98;;;6.57;;
36629;SDS011;36256;42.154;23.002;2022-07-24T14:14:17;9.57;;;6.00;;
36629;SDS011;36256;42.154;23.002;2022-07-24T14:19:10;14.57;;;6.40;;
36629;SDS011;36256;42.154;23.002;2022-07-24T14:21:37;11.30;;;6.00;;
36629;SDS011;36256;42.154;23.002;2022-07-24T14:24:05;13.65;;;6.18;;
36629;SDS011;36256;42.154;23.002;2022-07-24T14:26:40;14.50;;;6.40;;
36629;SDS011;36256;42.154;23.002;2022-07-24T14:31:33;8.98;;;6.78;;
36629;SDS011;36256;42.154;23.002;2022-07-24T14:34:00;13.00;;;6.93;;
36629;SDS011;36256;42.154;23.002;2022-07-24T14:36:27;8.30;;;6.60;;
36629;SDS011;36256;42.154;23.002;2022-07-24T14:38:53;10.23;;;6.30;;
36629;SDS011;36256;42.154;23.002;2022-07-24T14:41:21;9.30;;;6.70;;
36629;SDS011;36256;42.154;23.002;2022-07-24T14:43:47;11.10;;;6.57;;
36629;SDS011;36256;42.154;23.002;2022-07-24T14:46:14;13.75;;;7.53;;
36629;SDS011;36256;42.154;23.002;2022-07-24T14:48:42;14.40;;;7.45;;
36629;SDS011;36256;42.154;23.002;2022-07-24T14:51:09;11.70;;;7.38;;
36629;SDS011;36256;42.154;23.002;2022-07-24T14:53:36;14.07;;;7.88;;
36629;SDS011;36256;42.154;23.002;2022-07-24T14:56:03;9.25;;;7.47;;
36629;SDS011;36256;42.154;23.002;2022-07-24T14:58:29;11.85;;;7.30;;
36629;SDS011;36256;42.154;23.002;2022-07-24T15:00:56;10.85;;;7.70;;
36629;SDS011;36256;42.154;23.002;2022-07-24T15:03:23;12.57;;;7.75;;
36629;SDS011;36256;42.154;23.002;2022-07-24T15:05:49;11.35;;;7.43;;
36629;SDS011;36256;42.154;23.002;2022-07-24T15:08:16;11.57;;;7.70;;
36629;SDS011;36256;42.154;23.002;2022-07-24T15:13:10;11.85;;;8.10;;
36629;SDS011;36256;42.154;23.002;2022-07-24T15:15:37;11.52;;;8.05;;
36629;SDS011;36256;42.154;23.002;2022-07-24T15:18:03;10.73;;;8.27;;
36629;SDS011;36256;42.154;23.002;2022-07-24T15:20:30;10.45;;;8.40;;
36629;SDS011;36256;42.154;23.002;2022-07-24T15:22:57;15.13;;;8.07;;
36629;SDS011;36256;42.154;23.002;2022-07-24T15:25:23;12.38;;;8.38;;
36629;SDS011;36256;42.154;23.002;2022-07-24T15:27:50;10.70;;;8.32;;
36629;SDS011;36256;42.154;23.002;2022-07-24T15:30:17;11.63;;;7.72;;
36629;SDS011;36256;42.154;23.002;2022-07-24T15:32:55;11.40;;;7.90;;
36629;SDS011;36256;42.154;23.002;2022-07-24T15:35:23;9.98;;;8.10;;
36629;SDS011;36256;42.154;23.002;2022-07-24T15:40:16;12.93;;;8.85;;
36629;SDS011;36256;42.154;23.002;2022-07-24T15:42:42;11.55;;;8.20;;
36629;SDS011;36256;42.154;23.002;2022-07-24T15:45:09;11.50;;;8.35;;
36629;SDS011;36256;42.154;23.002;2022-07-24T15:47:36;13.55;;;8.05;;
36629;SDS011;36256;42.154;23.002;2022-07-24T15:50:03;12.18;;;8.27;;
36629;SDS011;36256;42.154;23.002;2022-07-24T15:52:30;13.05;;;8.50;;